Time;durP1;ratioP1;P1;durP2;ratioP2;P2;SDS_P1;SDS_P2;PMS_P1;PMS_P2;Temp;Humidity;BMP_temperature;BMP_pressure;BME280_temperature;BME280_humidity;BME280_pressure;Samples;Min_cycle;Max_cycle;Signal;HPM_P1;HPM_P2
2023/06/02 00:01:13;;;;;;;10.57;6.82;;;;;;;;;;5021882;28;20396;-60
2023/06/02 00:03:40;;;;;;;11.68;7.32;;;;;;;;;;5026514;28;20033;-60
2023/06/02 00:06:09;;;;;;;10.07;6.53;;;;;;;;;;5014669;28;20052;-60
2023/06/02 00:08:38;;;;;;;9.18;6.47;;;;;;;;;;5013532;28;20050;-60
2023/06/02 00:11:05;;;;;;;15.20;7.22;;;;;;;;;;5022275;28;20049;-59
2023/06/02 00:13:33;;;;;;;14.93;7.13;;;;;;;;;;5018872;28;20049;-60
2023/06/02 00:16:00;;;;;;;12.23;6.60;;;;;;;;;;5023699;28;20030;-60
2023/06/02 00:18:27;;;;;;;13.32;6.95;;;;;;;;;;5017020;28;20121;-60
2023/06/02 00:20:56;;;;;;;12.50;6.50;;;;;;;;;;5013820;28;20069;-60
2023/06/02 00:23:22;;;;;;;12.33;6.53;;;;;;;;;;5006509;28;20086;-60
2023/06/02 00:25:49;;;;;;;13.57;6.88;;;;;;;;;;5016520;28;20296;-60
2023/06/02 00:28:15;;;;;;;11.35;7.55;;;;;;;;;;5013464;28;20037;-60
2023/06/02 00:30:41;;;;;;;14.30;7.47;;;;;;;;;;5002375;28;20029;-60
2023/06/02 00:33:08;;;;;;;16.52;7.95;;;;;;;;;;4998882;28;20238;-60
2023/06/02 00:35:34;;;;;;;12.73;7.32;;;;;;;;;;5019102;28;20049;-60
2023/06/02 00:38:04;;;;;;;11.55;7.00;;;;;;;;;;5018468;28;20050;-60
2023/06/02 00:40:32;;;;;;;11.32;7.50;;;;;;;;;;5000774;28;20037;-60
2023/06/02 00:43:01;;;;;;;11.63;7.53;;;;;;;;;;5014237;28;20045;-60
2023/06/02 00:45:27;;;;;;;15.75;7.20;;;;;;;;;;5014388;28;20033;-60
2023/06/02 00:47:53;;;;;;;12.63;7.35;;;;;;;;;;4994104;28;20053;-60
2023/06/02 00:50:20;;;;;;;12.70;7.60;;;;;;;;;;5014156;28;20054;-60
2023/06/02 00:52:51;;;;;;;12.25;7.47;;;;;;;;;;5013553;28;20049;-60
2023/06/02 00:55:17;;;;;;;14.55;7.40;;;;;;;;;;5013881;28;20523;-58
2023/06/02 00:57:43;;;;;;;14.50;8.20;;;;;;;;;;5012896;28;20412;-58
2023/06/02 01:00:10;;;;;;;18.13;7.78;;;;;;;;;;5014932;28;20052;-59
2023/06/02 01:02:36;;;;;;;9.80;7.22;;;;;;;;;;5007881;28;20052;-59
2023/06/02 01:05:10;;;;;;;18.15;8.15;;;;;;;;;;5009056;28;20033;-60
2023/06/02 01:07:39;;;;;;;13.00;7.43;;;;;;;;;;5008892;28;20042;-59
2023/06/02 01:10:08;;;;;;;16.77;8.03;;;;;;;;;;5017530;28;20396;-60
2023/06/02 01:12:34;;;;;;;;;;;;;;;;;;5016509;28;20049;-59
2023/06/02 01:15:01;;;;;;;12.80;7.00;;;;;;;;;;5015492;28;19917;-59
2023/06/02 01:17:30;;;;;;;11.00;6.65;;;;;;;;;;5004904;28;20033;-59
2023/06/02 01:20:05;;;;;;;11.65;6.93;;;;;;;;;;5004038;28;20056;-58
2023/06/02 01:22:38;;;;;;;15.43;7.65;;;;;;;;;;4995487;28;20041;-60
2023/06/02 01:25:22;;;;;;;12.48;7.38;;;;;;;;;;5015167;28;20064;-59
2023/06/02 01:27:50;;;;;;;13.85;6.97;;;;;;;;;;4997322;28;20042;-60
2023/06/02 01:30:18;;;;;;;14.43;7.25;;;;;;;;;;5015192;28;20057;-58
2023/06/02 01:33:09;;;;;;;21.77;7.57;;;;;;;;;;5015392;28;20415;-60
2023/06/02 01:35:47;;;;;;;16.70;7.13;;;;;;;;;;5011339;28;20049;-56
2023/06/02 01:38:16;;;;;;;13.85;7.50;;;;;;;;;;4996856;28;20046;-59
2023/06/02 01:40:43;;;;;;;11.93;6.83;;;;;;;;;;4996910;28;20057;-59
2023/06/02 01:43:11;;;;;;;21.95;6.82;;;;;;;;;;5008193;28;20057;-60
2023/06/02 01:45:38;;;;;;;13.55;6.90;;;;;;;;;;5001649;28;20069;-59
2023/06/02 01:48:06;;;;;;;13.15;7.15;;;;;;;;;;4999005;28;20040;-59
2023/06/02 01:50:33;;;;;;;12.93;6.60;;;;;;;;;;5020077;28;20427;-60
2023/06/02 01:52:59;;;;;;;14.15;6.68;;;;;;;;;;4997795;28;20050;-60
2023/06/02 01:55:28;;;;;;;17.55;6.95;;;;;;;;;;4994834;28;20488;-60
2023/06/02 01:57:57;;;;;;;13.00;6.95;;;;;;;;;;5009540;28;20041;-60
2023/06/02 02:00:23;;;;;;;12.52;6.32;;;;;;;;;;5008667;28;20044;-60
2023/06/02 02:02:50;;;;;;;13.02;7.03;;;;;;;;;;5026619;28;20049;-58
2023/06/02 02:05:16;;;;;;;15.57;6.45;;;;;;;;;;5028654;28;20435;-60
2023/06/02 02:07:43;;;;;;;11.25;6.35;;;;;;;;;;5016876;28;20049;-60
2023/06/02 02:10:10;;;;;;;15.63;7.10;;;;;;;;;;5017121;28;20040;-60
2023/06/02 02:12:40;;;;;;;13.55;6.68;;;;;;;;;;5016380;28;20060;-60
2023/06/02 02:15:07;;;;;;;14.43;6.50;;;;;;;;;;5002134;28;20046;-60
2023/06/02 02:17:34;;;;;;;16.10;7.22;;;;;;;;;;5021457;28;20045;-60
2023/06/02 02:20:01;;;;;;;16.50;6.93;;;;;;;;;;5021007;28;20034;-59
2023/06/02 02:22:27;;;;;;;11.40;5.93;;;;;;;;;;5016080;28;20053;-60
2023/06/02 02:24:53;;;;;;;12.57;6.07;;;;;;;;;;5016067;28;20046;-60
2023/06/02 02:27:20;;;;;;;14.02;6.60;;;;;;;;;;5014193;28;20057;-60
2023/06/02 02:29:47;;;;;;;16.25;7.35;;;;;;;;;;4980745;28;20048;-60
2023/06/02 02:32:13;;;;;;;17.65;6.88;;;;;;;;;;5001816;28;20619;-60
2023/06/02 02:34:40;;;;;;;12.63;6.40;;;;;;;;;;5013633;28;20044;-60
2023/06/02 02:37:10;;;;;;;12.13;6.28;;;;;;;;;;5005767;28;20057;-59
2023/06/02 02:39:36;;;;;;;19.70;6.32;;;;;;;;;;5004995;28;20034;-60
2023/06/02 02:42:03;;;;;;;15.00;6.63;;;;;;;;;;5003565;28;20033;-60
2023/06/02 02:44:29;;;;;;;13.98;7.00;;;;;;;;;;4997266;28;20041;-60
2023/06/02 02:46:58;;;;;;;14.98;6.65;;;;;;;;;;5004728;28;20045;-60
2023/06/02 02:49:24;;;;;;;15.07;6.63;;;;;;;;;;5023129;28;20079;-60
2023/06/02 02:51:50;;;;;;;13.20;7.35;;;;;;;;;;5000269;28;20419;-60
2023/06/02 02:54:17;;;;;;;14.68;6.95;;;;;;;;;;5017731;28;20078;-60
2023/06/02 02:56:43;;;;;;;14.63;7.05;;;;;;;;;;5000354;28;20034;-59
2023/06/02 02:59:12;;;;;;;14.38;6.70;;;;;;;;;;5004247;28;20054;-59
2023/06/02 03:01:44;;;;;;;13.25;7.13;;;;;;;;;;4996334;28;20049;-56
2023/06/02 03:04:21;;;;;;;14.38;6.88;;;;;;;;;;5002673;28;20041;-59
2023/06/02 03:06:49;;;;;;;20.83;7.05;;;;;;;;;;5022355;28;20499;-59
2023/06/02 03:09:18;;;;;;;16.33;7.32;;;;;;;;;;4997885;28;20033;-60
2023/06/02 03:11:45;;;;;;;14.77;7.00;;;;;;;;;;5015265;28;20068;-60
2023/06/02 03:14:12;;;;;;;16.10;8.07;;;;;;;;;;5000930;28;20063;-59
2023/06/02 03:16:41;;;;;;;16.73;7.43;;;;;;;;;;4996804;28;20606;-60
2023/06/02 03:19:08;;;;;;;18.63;7.07;;;;;;;;;;4990423;28;20045;-59
2023/06/02 03:21:41;;;;;;;16.77;7.32;;;;;;;;;;5007868;28;20245;-59
2023/06/02 03:24:12;;;;;;;16.00;7.78;;;;;;;;;;5009606;28;20415;-59
2023/06/02 03:26:40;;;;;;;16.20;7.22;;;;;;;;;;4995190;28;20049;-59
2023/06/02 03:29:08;;;;;;;16.83;8.27;;;;;;;;;;5014231;28;20050;-60
2023/06/02 03:31:35;;;;;;;16.35;8.10;;;;;;;;;;4998767;28;20053;-59
2023/06/02 03:34:03;;;;;;;17.33;7.68;;;;;;;;;;5011928;28;20052;-60
2023/06/02 03:36:34;;;;;;;16.02;7.85;;;;;;;;;;5009262;28;20053;-60
2023/06/02 03:39:04;;;;;;;13.63;7.70;;;;;;;;;;5012285;28;20052;-58
2023/06/02 03:41:30;;;;;;;16.20;7.30;;;;;;;;;;5017559;28;20038;-58
2023/06/02 03:43:57;;;;;;;17.65;7.63;;;;;;;;;;4997419;28;20053;-59
2023/06/02 03:46:23;;;;;;;19.55;8.85;;;;;;;;;;5004408;28;20045;-59
2023/06/02 03:48:49;;;;;;;19.25;8.10;;;;;;;;;;5017319;28;20042;-59
2023/06/02 03:51:16;;;;;;;15.93;8.30;;;;;;;;;;5010349;28;20037;-59
2023/06/02 03:53:43;;;;;;;16.90;7.75;;;;;;;;;;4997864;28;20514;-59
2023/06/02 03:56:11;;;;;;;18.00;7.95;;;;;;;;;;5013742;28;20122;-58
2023/06/02 03:58:38;;;;;;;15.45;8.00;;;;;;;;;;4999250;28;20040;-59
2023/06/02 04:01:04;;;;;;;19.95;8.95;;;;;;;;;;4999808;28;20041;-59
2023/06/02 04:03:41;;;;;;;22.48;8.40;;;;;;;;;;4995859;28;20486;-57
2023/06/02 04:06:09;;;;;;;21.98;8.95;;;;;;;;;;5012359;28;20033;-59
2023/06/02 04:08:36;;;;;;;17.02;7.78;;;;;;;;;;4997477;28;20062;-60
2023/06/02 04:11:03;;;;;;;20.23;8.27;;;;;;;;;;4996343;28;20041;-60
2023/06/02 04:13:30;;;;;;;24.85;9.70;;;;;;;;;;5009483;28;20060;-59
2023/06/02 04:15:58;;;;;;;15.98;7.82;;;;;;;;;;4995350;28;20128;-60
2023/06/02 04:18:30;;;;;;;17.63;7.97;;;;;;;;;;4998282;28;20054;-60
2023/06/02 04:20:58;;;;;;;16.40;7.85;;;;;;;;;;5013425;28;20045;-60
2023/06/02 04:23:25;;;;;;;15.43;7.35;;;;;;;;;;5005659;28;20048;-58
2023/06/02 04:25:51;;;;;;;24.17;9.57;;;;;;;;;;4994872;28;20399;-57
2023/06/02 04:28:19;;;;;;;39.13;14.48;;;;;;;;;;5020973;28;20499;-60
2023/06/02 04:30:47;;;;;;;19.85;9.23;;;;;;;;;;4995070;28;20049;-60
2023/06/02 04:33:14;;;;;;;26.88;11.75;;;;;;;;;;5006041;28;20053;-60
2023/06/02 04:35:41;;;;;;;52.05;18.52;;;;;;;;;;4996569;28;20407;-59
2023/06/02 04:38:07;;;;;;;37.80;14.65;;;;;;;;;;4997985;28;20052;-60
2023/06/02 04:40:34;;;;;;;23.40;9.02;;;;;;;;;;4999658;28;20041;-60
2023/06/02 04:43:00;;;;;;;18.88;8.02;;;;;;;;;;5008546;28;20049;-60
2023/06/02 04:45:26;;;;;;;20.13;8.60;;;;;;;;;;5007807;28;20518;-59
2023/06/02 04:47:53;;;;;;;22.27;8.55;;;;;;;;;;5004365;28;20049;-58
2023/06/02 04:50:19;;;;;;;18.15;8.15;;;;;;;;;;4998338;28;20056;-59
2023/06/02 04:52:46;;;;;;;20.58;8.63;;;;;;;;;;4999386;28;20411;-58
2023/06/02 04:55:14;;;;;;;22.75;8.50;;;;;;;;;;5001497;28;20443;-58
2023/06/02 04:57:42;;;;;;;21.05;8.35;;;;;;;;;;5001940;28;20038;-59
2023/06/02 05:00:10;;;;;;;21.52;8.75;;;;;;;;;;4997590;28;20045;-56
2023/06/02 05:02:37;;;;;;;21.63;8.95;;;;;;;;;;4995287;28;20046;-59
2023/06/02 05:05:05;;;;;;;20.98;8.80;;;;;;;;;;5000522;28;20045;-59
2023/06/02 05:07:33;;;;;;;23.47;9.70;;;;;;;;;;5000004;28;20041;-58
2023/06/02 05:10:00;;;;;;;22.23;8.35;;;;;;;;;;5002865;28;20109;-58
2023/06/02 05:12:26;;;;;;;22.15;9.40;;;;;;;;;;5010893;28;20056;-58
2023/06/02 05:14:54;;;;;;;25.70;9.73;;;;;;;;;;5001066;28;20466;-58
2023/06/02 05:17:27;;;;;;;24.58;9.43;;;;;;;;;;4994716;28;20041;-58
2023/06/02 05:19:55;;;;;;;25.83;10.18;;;;;;;;;;5011245;28;20042;-58
2023/06/02 05:22:22;;;;;;;32.17;10.10;;;;;;;;;;5008716;28;20049;-58
2023/06/02 05:24:48;;;;;;;29.27;10.73;;;;;;;;;;5006674;28;20033;-58
2023/06/02 05:27:14;;;;;;;26.45;9.82;;;;;;;;;;5020501;28;20408;-57
2023/06/02 05:29:40;;;;;;;26.70;9.57;;;;;;;;;;5004724;28;20091;-58
2023/06/02 05:32:07;;;;;;;23.90;8.98;;;;;;;;;;4999850;28;20037;-58
2023/06/02 05:34:35;;;;;;;26.23;9.48;;;;;;;;;;5007602;28;20048;-58
2023/06/02 05:37:02;;;;;;;22.90;9.40;;;;;;;;;;5001002;28;20045;-59
2023/06/02 05:39:29;;;;;;;29.73;10.32;;;;;;;;;;4985735;28;20038;-58
2023/06/02 05:41:56;;;;;;;36.78;10.75;;;;;;;;;;5010859;28;20053;-59
2023/06/02 05:44:23;;;;;;;25.83;9.60;;;;;;;;;;5001664;28;20038;-59
2023/06/02 05:46:49;;;;;;;26.73;9.52;;;;;;;;;;5017120;28;20042;-59
2023/06/02 05:49:15;;;;;;;24.48;9.85;;;;;;;;;;5004871;28;20041;-59
2023/06/02 05:51:42;;;;;;;27.17;10.90;;;;;;;;;;5006678;28;20045;-58
2023/06/02 05:54:09;;;;;;;29.75;10.52;;;;;;;;;;4996165;28;20045;-59
2023/06/02 05:56:35;;;;;;;30.52;10.82;;;;;;;;;;5002297;28;20037;-59
2023/06/02 05:59:01;;;;;;;34.33;10.73;;;;;;;;;;4997655;28;20034;-58
2023/06/02 06:01:29;;;;;;;34.70;11.52;;;;;;;;;;5006744;28;20041;-58
2023/06/02 06:03:56;;;;;;;34.78;10.63;;;;;;;;;;5011356;28;20049;-58
2023/06/02 06:06:23;;;;;;;28.95;10.48;;;;;;;;;;5005633;28;20049;-58
2023/06/02 06:08:50;;;;;;;27.48;10.77;;;;;;;;;;4998499;28;20048;-58
2023/06/02 06:11:16;;;;;;;35.30;10.85;;;;;;;;;;5001320;28;20410;-59
2023/06/02 06:13:43;;;;;;;31.65;10.82;;;;;;;;;;5016971;28;20056;-59
2023/06/02 06:16:09;;;;;;;29.20;9.77;;;;;;;;;;5015968;28;20054;-59
2023/06/02 06:18:35;;;;;;;30.20;11.88;;;;;;;;;;5015649;28;20033;-59
2023/06/02 06:21:02;;;;;;;28.90;10.80;;;;;;;;;;5001303;28;20087;-59
2023/06/02 06:23:29;;;;;;;18.85;7.20;;;;;;;;;;4998539;28;20598;-59
2023/06/02 06:25:55;;;;;;;18.38;8.32;;;;;;;;;;5003671;28;20049;-58
2023/06/02 06:28:22;;;;;;;21.80;8.90;;;;;;;;;;5010887;28;20415;-58
2023/06/02 06:30:49;;;;;;;22.70;9.23;;;;;;;;;;5002501;28;20556;-60
2023/06/02 06:33:16;;;;;;;26.42;10.30;;;;;;;;;;5000249;28;20056;-58
2023/06/02 06:35:42;;;;;;;26.33;10.38;;;;;;;;;;4989338;28;20041;-58
2023/06/02 06:38:09;;;;;;;24.92;9.85;;;;;;;;;;5000140;28;20466;-58
2023/06/02 06:40:36;;;;;;;28.90;9.80;;;;;;;;;;5000840;28;20045;-58
2023/06/02 06:43:02;;;;;;;34.30;11.10;;;;;;;;;;5018470;28;20426;-58
2023/06/02 06:45:33;;;;;;;34.60;11.45;;;;;;;;;;5000931;28;20040;-59
2023/06/02 06:47:59;;;;;;;32.65;11.57;;;;;;;;;;5008926;28;20105;-59
2023/06/02 06:50:26;;;;;;;36.53;11.63;;;;;;;;;;4989369;28;20042;-59
2023/06/02 06:52:52;;;;;;;33.58;11.68;;;;;;;;;;5018189;28;20036;-58
2023/06/02 06:55:18;;;;;;;37.78;10.70;;;;;;;;;;5021718;28;20056;-58
2023/06/02 06:57:44;;;;;;;37.60;10.80;;;;;;;;;;5021664;28;20044;-58
2023/06/02 07:00:11;;;;;;;28.67;10.57;;;;;;;;;;5008598;28;20422;-59
2023/06/02 07:02:37;;;;;;;28.85;10.88;;;;;;;;;;5006103;28;20041;-58
2023/06/02 07:05:04;;;;;;;35.03;11.43;;;;;;;;;;5022510;28;20054;-59
2023/06/02 07:07:30;;;;;;;32.33;10.90;;;;;;;;;;5019476;28;20021;-59
2023/06/02 07:09:57;;;;;;;27.23;9.60;;;;;;;;;;5022178;28;20400;-59
2023/06/02 07:12:23;;;;;;;30.27;11.38;;;;;;;;;;5008545;28;20041;-58
2023/06/02 07:14:51;;;;;;;30.48;12.27;;;;;;;;;;5025982;28;20048;-59
2023/06/02 07:17:17;;;;;;;30.48;11.18;;;;;;;;;;5022398;28;20045;-60
2023/06/02 07:19:43;;;;;;;30.67;10.77;;;;;;;;;;5015238;28;20490;-59
2023/06/02 07:22:10;;;;;;;26.90;10.95;;;;;;;;;;5001374;28;20037;-59
2023/06/02 07:24:36;;;;;;;24.17;10.13;;;;;;;;;;5016841;28;20056;-60
2023/06/02 07:27:03;;;;;;;27.77;10.90;;;;;;;;;;5025892;28;20067;-59
2023/06/02 07:29:29;;;;;;;35.35;12.45;;;;;;;;;;5003031;28;20499;-58
2023/06/02 07:31:55;;;;;;;38.13;13.52;;;;;;;;;;5018272;28;20037;-59
2023/06/02 07:34:21;;;;;;;30.50;12.52;;;;;;;;;;4998118;28;20041;-59
2023/06/02 07:36:49;;;;;;;40.80;12.32;;;;;;;;;;5015676;28;20041;-59
2023/06/02 07:39:16;;;;;;;42.38;14.02;;;;;;;;;;4997181;28;20645;-59
2023/06/02 07:41:42;;;;;;;36.90;13.02;;;;;;;;;;5001216;28;20045;-60
2023/06/02 07:44:08;;;;;;;35.80;12.63;;;;;;;;;;5014714;28;20049;-61
2023/06/02 07:46:34;;;;;;;37.13;13.68;;;;;;;;;;5015035;28;20026;-60
2023/06/02 07:49:01;;;;;;;37.03;13.98;;;;;;;;;;5013658;28;20053;-60
2023/06/02 07:51:27;;;;;;;37.92;13.55;;;;;;;;;;5013429;28;20431;-58
2023/06/02 07:53:54;;;;;;;35.25;12.77;;;;;;;;;;5015109;28;20147;-60
2023/06/02 07:56:20;;;;;;;28.67;11.27;;;;;;;;;;5003323;28;20636;-58
2023/06/02 07:58:46;;;;;;;37.80;14.57;;;;;;;;;;5018742;28;20050;-60
2023/06/02 08:01:12;;;;;;;34.40;12.68;;;;;;;;;;5018604;28;20033;-59
2023/06/02 08:03:40;;;;;;;37.50;12.68;;;;;;;;;;5018446;28;20438;-60
2023/06/02 08:06:06;;;;;;;39.03;13.02;;;;;;;;;;5021050;28;20435;-60
2023/06/02 08:08:33;;;;;;;37.85;11.85;;;;;;;;;;5017441;28;20041;-60
2023/06/02 08:10:59;;;;;;;35.40;12.13;;;;;;;;;;5014281;28;20033;-60
2023/06/02 08:13:26;;;;;;;33.92;12.70;;;;;;;;;;4986393;28;20041;-59
2023/06/02 08:15:53;;;;;;;34.17;12.32;;;;;;;;;;5014085;28;20029;-60
2023/06/02 08:18:19;;;;;;;36.47;13.13;;;;;;;;;;5008218;28;20507;-59
2023/06/02 08:20:45;;;;;;;40.15;14.57;;;;;;;;;;5017646;28;20025;-60
2023/06/02 08:23:12;;;;;;;34.15;12.10;;;;;;;;;;5012727;28;20054;-60
2023/06/02 08:25:39;;;;;;;41.22;14.13;;;;;;;;;;5014727;28;20034;-61
2023/06/02 08:28:09;;;;;;;35.25;12.75;;;;;;;;;;5007159;28;20041;-59
2023/06/02 08:30:37;;;;;;;36.50;13.32;;;;;;;;;;5018836;28;20033;-59
2023/06/02 08:33:05;;;;;;;38.15;14.18;;;;;;;;;;5020093;28;20399;-64
2023/06/02 08:35:32;;;;;;;35.78;12.70;;;;;;;;;;5001344;28;20535;-63
2023/06/02 08:38:02;;;;;;;39.60;13.48;;;;;;;;;;5016964;28;20042;-60
2023/06/02 08:40:36;;;;;;;40.33;13.10;;;;;;;;;;5016204;28;20061;-58
2023/06/02 08:43:04;;;;;;;35.63;13.02;;;;;;;;;;5000044;28;20075;-59
2023/06/02 08:45:31;;;;;;;40.95;15.68;;;;;;;;;;5017648;28;20052;-58
2023/06/02 08:47:57;;;;;;;32.72;11.52;;;;;;;;;;5027565;28;20513;-59
2023/06/02 08:50:28;;;;;;;34.13;11.57;;;;;;;;;;5022194;28;20045;-59
2023/06/02 08:52:57;;;;;;;39.90;13.10;;;;;;;;;;5020812;28;20050;-58
2023/06/02 08:55:24;;;;;;;45.42;14.25;;;;;;;;;;5016197;28;20487;-59
2023/06/02 08:57:51;;;;;;;37.05;12.48;;;;;;;;;;5021406;28;20045;-59
2023/06/02 09:00:18;;;;;;;35.78;12.65;;;;;;;;;;5023685;28;20514;-58
2023/06/02 09:02:48;;;;;;;37.55;12.95;;;;;;;;;;5022284;28;20052;-60
2023/06/02 09:05:17;;;;;;;29.05;11.45;;;;;;;;;;5025181;28;20056;-58
2023/06/02 09:07:45;;;;;;;34.63;13.35;;;;;;;;;;5028564;28;20648;-59
2023/06/02 09:10:31;;;;;;;31.40;12.85;;;;;;;;;;5019258;28;20574;-59
2023/06/02 09:12:57;;;;;;;30.58;11.35;;;;;;;;;;5017099;28;20053;-59
2023/06/02 09:15:27;;;;;;;42.75;12.98;;;;;;;;;;5015947;28;20064;-59
2023/06/02 09:18:09;;;;;;;41.65;12.43;;;;;;;;;;5019799;28;20041;-59
2023/06/02 09:20:37;;;;;;;32.78;11.77;;;;;;;;;;5028180;28;20046;-59
2023/06/02 09:23:04;;;;;;;36.03;12.48;;;;;;;;;;5004928;28;20057;-59
2023/06/02 09:25:31;;;;;;;31.70;12.48;;;;;;;;;;5018206;28;20381;-59
2023/06/02 09:27:59;;;;;;;34.10;13.25;;;;;;;;;;5020266;28;20057;-61
2023/06/02 09:30:26;;;;;;;31.38;11.63;;;;;;;;;;5020787;28;20383;-60
2023/06/02 09:33:00;;;;;;;24.38;10.35;;;;;;;;;;5028187;28;20036;-61
2023/06/02 09:35:41;;;;;;;24.38;10.93;;;;;;;;;;5024629;28;20438;-60
2023/06/02 09:38:16;;;;;;;24.95;10.77;;;;;;;;;;5021581;28;20042;-60
2023/06/02 09:40:44;;;;;;;23.58;10.68;;;;;;;;;;5019572;28;20057;-60
2023/06/02 09:43:12;;;;;;;25.67;10.77;;;;;;;;;;5016939;28;20038;-61
2023/06/02 09:45:47;;;;;;;23.35;10.07;;;;;;;;;;5000787;28;20037;-62
2023/06/02 09:48:22;;;;;;;20.98;10.10;;;;;;;;;;5024379;28;20053;-62
2023/06/02 09:50:49;;;;;;;24.92;10.70;;;;;;;;;;5020910;28;20034;-61
2023/06/02 09:53:17;;;;;;;24.90;11.38;;;;;;;;;;5026586;28;20040;-60
2023/06/02 09:55:45;;;;;;;21.90;10.43;;;;;;;;;;5015895;28;20038;-60
2023/06/02 09:58:12;;;;;;;21.92;11.38;;;;;;;;;;5014899;28;20397;-59
2023/06/02 10:00:39;;;;;;;19.98;10.27;;;;;;;;;;5024674;28;20046;-59
2023/06/02 10:03:06;;;;;;;22.98;10.73;;;;;;;;;;5018945;28;20037;-59
2023/06/02 10:05:33;;;;;;;22.25;10.98;;;;;;;;;;5026695;28;20045;-59
2023/06/02 10:08:30;;;;;;;18.77;10.45;;;;;;;;;;5016517;28;20033;-58
2023/06/02 10:11:04;;;;;;;19.33;10.40;;;;;;;;;;5028892;28;20033;-59
2023/06/02 10:14:00;;;;;;;18.75;10.65;;;;;;;;;;5028252;28;20502;-59
2023/06/02 10:16:39;;;;;;;17.83;9.45;;;;;;;;;;4978497;28;20041;-59
2023/06/02 10:19:43;;;;;;;16.90;10.20;;;;;;;;;;5017317;28;20399;-59
2023/06/02 10:22:53;;;;;;;18.40;9.90;;;;;;;;;;4931566;29;20050;-59
2023/06/02 10:25:38;;;;;;;17.75;9.82;;;;;;;;;;4980609;28;20049;-59
2023/06/02 10:28:06;;;;;;;16.42;9.73;;;;;;;;;;5016340;28;20699;-59
2023/06/02 10:30:33;;;;;;;20.80;10.00;;;;;;;;;;5018317;28;20042;-58
2023/06/02 10:33:00;;;;;;;19.95;9.38;;;;;;;;;;5016720;28;20514;-58
2023/06/02 10:35:59;;;;;;;17.35;9.52;;;;;;;;;;5021521;28;20514;-59
2023/06/02 10:38:33;;;;;;;17.73;9.68;;;;;;;;;;5017851;28;20041;-58
2023/06/02 10:41:00;;;;;;;19.05;9.60;;;;;;;;;;5015884;28;20056;-58
2023/06/02 10:43:26;;;;;;;18.45;10.18;;;;;;;;;;5006672;28;20049;-58
2023/06/02 10:45:55;;;;;;;18.20;9.45;;;;;;;;;;5018494;28;20050;-58
2023/06/02 10:48:40;;;;;;;15.38;9.65;;;;;;;;;;5018574;28;20498;-58
2023/06/02 10:51:08;;;;;;;14.55;9.45;;;;;;;;;;5024988;28;20068;-58
2023/06/02 10:54:04;;;;;;;15.32;9.38;;;;;;;;;;5015768;28;20049;-57
2023/06/02 10:56:38;;;;;;;15.38;8.73;;;;;;;;;;5016262;28;20052;-58
2023/06/02 10:59:06;;;;;;;18.45;9.88;;;;;;;;;;5016528;28;20042;-58
2023/06/02 11:01:51;;;;;;;16.65;9.07;;;;;;;;;;5017869;28;20472;-58
2023/06/02 11:04:28;;;;;;;19.50;9.23;;;;;;;;;;5013657;28;20053;-58
2023/06/02 11:07:33;;;;;;;17.85;8.77;;;;;;;;;;5005947;28;20042;-55
2023/06/02 11:10:03;;;;;;;21.35;9.48;;;;;;;;;;4931324;29;20147;-59
2023/06/02 11:13:02;;;;;;;17.45;9.02;;;;;;;;;;4930237;29;20494;-59
2023/06/02 11:15:28;;;;;;;;;;;;;;;;;;4980716;28;20422;-60
2023/06/02 11:17:54;;;;;;;17.52;8.82;;;;;;;;;;5017712;28;19912;-60
2023/06/02 11:20:32;;;;;;;25.60;9.32;;;;;;;;;;5016377;28;20054;-59
2023/06/02 11:23:05;;;;;;;14.45;9.15;;;;;;;;;;5014929;28;20054;-59
2023/06/02 11:25:31;;;;;;;14.80;9.10;;;;;;;;;;5015896;28;20065;-58
2023/06/02 11:27:57;;;;;;;14.35;9.27;;;;;;;;;;5000874;28;20041;-59
2023/06/02 11:30:24;;;;;;;16.25;8.93;;;;;;;;;;5015719;28;20471;-59
2023/06/02 11:32:51;;;;;;;14.55;9.63;;;;;;;;;;5014533;28;20058;-60
2023/06/02 11:35:20;;;;;;;12.75;9.10;;;;;;;;;;5015422;28;20045;-59
2023/06/02 11:38:04;;;;;;;12.82;8.60;;;;;;;;;;5018201;28;20045;-59
2023/06/02 11:40:31;;;;;;;12.52;8.50;;;;;;;;;;5023407;28;20034;-59
2023/06/02 11:42:58;;;;;;;14.60;8.73;;;;;;;;;;5014705;28;20056;-59
2023/06/02 11:45:27;;;;;;;14.00;8.93;;;;;;;;;;5019591;28;20499;-60
2023/06/02 11:48:03;;;;;;;23.42;9.75;;;;;;;;;;5019841;28;20033;-58
2023/06/02 11:50:30;;;;;;;16.13;8.93;;;;;;;;;;5025454;28;20402;-60
2023/06/02 11:52:56;;;;;;;15.32;8.95;;;;;;;;;;5003603;28;20046;-60
2023/06/02 11:55:30;;;;;;;13.65;9.25;;;;;;;;;;5025049;28;20060;-58
2023/06/02 11:58:22;;;;;;;11.60;8.63;;;;;;;;;;5019486;28;20048;-60
2023/06/02 12:00:51;;;;;;;13.18;8.20;;;;;;;;;;5013896;28;20041;-58
2023/06/02 12:03:17;;;;;;;14.97;8.23;;;;;;;;;;5013307;28;20060;-59
2023/06/02 12:05:45;;;;;;;12.50;8.00;;;;;;;;;;5018582;28;20499;-58
2023/06/02 12:08:24;;;;;;;11.77;8.23;;;;;;;;;;5024208;28;20041;-56
2023/06/02 12:10:51;;;;;;;10.75;7.03;;;;;;;;;;5012140;28;20058;-57
2023/06/02 12:13:28;;;;;;;15.35;8.38;;;;;;;;;;5017484;28;20056;-62
2023/06/02 12:15:57;;;;;;;14.82;7.78;;;;;;;;;;5020209;28;20029;-61
2023/06/02 12:18:31;;;;;;;15.43;7.72;;;;;;;;;;5015723;28;20049;-62
2023/06/02 12:20:59;;;;;;;11.93;8.40;;;;;;;;;;5021179;28;20041;-62
2023/06/02 12:23:45;;;;;;;12.20;8.27;;;;;;;;;;4997567;28;20029;-61
2023/06/02 12:26:12;;;;;;;11.43;8.43;;;;;;;;;;5014598;28;20041;-62
2023/06/02 12:28:39;;;;;;;18.80;13.93;;;;;;;;;;5023224;28;20045;-63
2023/06/02 12:31:05;;;;;;;10.38;8.45;;;;;;;;;;5011703;28;20056;-62
2023/06/02 12:33:31;;;;;;;11.57;7.85;;;;;;;;;;4999924;28;20396;-61
2023/06/02 12:35:57;;;;;;;12.68;8.20;;;;;;;;;;5022975;28;20058;-61
2023/06/02 12:38:23;;;;;;;14.68;7.97;;;;;;;;;;4983967;28;20076;-61
2023/06/02 12:40:50;;;;;;;17.40;7.70;;;;;;;;;;5017038;28;20369;-61
2023/06/02 12:43:18;;;;;;;13.45;8.25;;;;;;;;;;5020060;28;20499;-60
2023/06/02 12:45:44;;;;;;;10.93;8.07;;;;;;;;;;4995148;28;20030;-59
2023/06/02 12:48:11;;;;;;;14.18;7.60;;;;;;;;;;5014547;28;20034;-60
2023/06/02 12:50:38;;;;;;;12.55;8.07;;;;;;;;;;5018521;28;20540;-64
2023/06/02 12:53:05;;;;;;;12.68;7.97;;;;;;;;;;5010308;28;20061;-60
2023/06/02 12:55:31;;;;;;;13.70;7.85;;;;;;;;;;5011283;28;20046;-60
2023/06/02 12:57:57;;;;;;;14.52;7.85;;;;;;;;;;5018541;28;20042;-60
2023/06/02 13:00:23;;;;;;;13.30;8.20;;;;;;;;;;5014497;28;20604;-60
2023/06/02 13:02:49;;;;;;;14.68;8.43;;;;;;;;;;5019252;28;20499;-59
2023/06/02 13:05:16;;;;;;;16.98;8.25;;;;;;;;;;5017318;28;20052;-60
2023/06/02 13:07:43;;;;;;;13.38;8.40;;;;;;;;;;5021709;28;20394;-59
2023/06/02 13:10:10;;;;;;;12.80;8.30;;;;;;;;;;4996355;28;20046;-59
2023/06/02 13:12:38;;;;;;;9.55;7.75;;;;;;;;;;5014774;28;20041;-60
2023/06/02 13:15:05;;;;;;;10.20;7.75;;;;;;;;;;5023809;28;20045;-60
2023/06/02 13:17:33;;;;;;;11.43;8.25;;;;;;;;;;5017772;28;20046;-61
2023/06/02 13:20:00;;;;;;;11.43;7.97;;;;;;;;;;5015673;28;20435;-61
2023/06/02 13:22:26;;;;;;;17.33;7.70;;;;;;;;;;5014108;28;20033;-60
2023/06/02 13:24:52;;;;;;;13.85;8.80;;;;;;;;;;5017713;28;20042;-60
2023/06/02 13:27:19;;;;;;;12.43;7.88;;;;;;;;;;5010614;28;20442;-60
2023/06/02 13:29:45;;;;;;;15.32;8.00;;;;;;;;;;5023068;28;20037;-61
2023/06/02 13:32:12;;;;;;;12.35;7.63;;;;;;;;;;5020468;28;20130;-61
2023/06/02 13:34:41;;;;;;;12.88;7.70;;;;;;;;;;5021021;28;20042;-61
2023/06/02 13:37:07;;;;;;;11.23;7.80;;;;;;;;;;5023225;28;20387;-61
2023/06/02 13:39:33;;;;;;;11.75;7.32;;;;;;;;;;5022318;28;20049;-59
2023/06/02 13:41:59;;;;;;;13.00;7.50;;;;;;;;;;5000942;28;20050;-61
2023/06/02 13:44:25;;;;;;;10.60;7.07;;;;;;;;;;5016394;28;20049;-60
2023/06/02 13:46:51;;;;;;;12.50;7.97;;;;;;;;;;5017490;28;20038;-61
2023/06/02 13:49:19;;;;;;;12.57;7.32;;;;;;;;;;5015110;28;20065;-60
2023/06/02 13:51:49;;;;;;;11.02;7.00;;;;;;;;;;5007838;28;20042;-61
2023/06/02 13:54:18;;;;;;;9.57;6.93;;;;;;;;;;4999655;28;20038;-60
2023/06/02 13:56:48;;;;;;;11.93;7.25;;;;;;;;;;5011043;28;20033;-61
2023/06/02 13:59:16;;;;;;;12.43;7.55;;;;;;;;;;5003796;28;20038;-60
2023/06/02 14:01:42;;;;;;;14.05;7.10;;;;;;;;;;5021395;28;20049;-60
2023/06/02 14:04:09;;;;;;;15.75;7.60;;;;;;;;;;4999733;28;20400;-60
2023/06/02 14:06:36;;;;;;;9.40;6.50;;;;;;;;;;5022445;28;20049;-61
2023/06/02 14:09:04;;;;;;;10.20;6.72;;;;;;;;;;5014547;28;20500;-60
2023/06/02 14:11:36;;;;;;;10.17;7.33;;;;;;;;;;5016055;28;20034;-61
2023/06/02 14:14:03;;;;;;;14.10;7.60;;;;;;;;;;5015332;28;20488;-61
2023/06/02 14:16:29;;;;;;;12.05;7.45;;;;;;;;;;5019922;28;20050;-59
2023/06/02 14:18:56;;;;;;;12.25;7.18;;;;;;;;;;5013511;28;20049;-61
2023/06/02 14:21:22;;;;;;;11.63;6.95;;;;;;;;;;4996865;28;20034;-60
2023/06/02 14:23:49;;;;;;;11.07;7.03;;;;;;;;;;5006395;28;20056;-60
2023/06/02 14:26:16;;;;;;;10.55;6.90;;;;;;;;;;5019498;28;20050;-60
2023/06/02 14:28:42;;;;;;;13.13;7.22;;;;;;;;;;5019833;28;20053;-60
2023/06/02 14:31:08;;;;;;;13.82;7.05;;;;;;;;;;4996523;28;20526;-60
2023/06/02 14:33:34;;;;;;;11.55;7.00;;;;;;;;;;5021758;28;20033;-60
2023/06/02 14:36:01;;;;;;;8.45;6.35;;;;;;;;;;5019143;28;20038;-60